sensor_id;sensor_type;location;lat;lon;timestamp;P1;durP1;ratioP1;P2;durP2;ratioP2
22579;SDS011;11456;47.030;15.396;2024-01-25T00:00:22;3.55;;;1.15;;
22579;SDS011;11456;47.030;15.396;2024-01-25T00:02:49;7.50;;;1.40;;
22579;SDS011;11456;47.030;15.396;2024-01-25T00:05:16;4.72;;;1.35;;
22579;SDS011;11456;47.030;15.396;2024-01-25T00:07:46;3.40;;;1.17;;
22579;SDS011;11456;47.030;15.396;2024-01-25T00:10:17;4.18;;;1.20;;
22579;SDS011;11456;47.030;15.396;2024-01-25T00:12:45;2.97;;;1.08;;
22579;SDS011;11456;47.030;15.396;2024-01-25T00:15:12;3.65;;;1.15;;
22579;SDS011;11456;47.030;15.396;2024-01-25T00:17:39;4.15;;;1.30;;
22579;SDS011;11456;47.030;15.396;2024-01-25T00:20:08;2.45;;;0.95;;
22579;SDS011;11456;47.030;15.396;2024-01-25T00:22:36;4.53;;;1.23;;
22579;SDS011;11456;47.030;15.396;2024-01-25T00:25:04;4.22;;;1.05;;
22579;SDS011;11456;47.030;15.396;2024-01-25T00:27:31;5.68;;;1.33;;
22579;SDS011;11456;47.030;15.396;2024-01-25T00:29:58;3.00;;;0.90;;
22579;SDS011;11456;47.030;15.396;2024-01-25T00:32:25;4.63;;;1.20;;
22579;SDS011;11456;47.030;15.396;2024-01-25T00:34:52;3.88;;;1.23;;
22579;SDS011;11456;47.030;15.396;2024-01-25T00:37:19;4.35;;;1.35;;
22579;SDS011;11456;47.030;15.396;2024-01-25T00:39:47;2.40;;;0.80;;
22579;SDS011;11456;47.030;15.396;2024-01-25T00:42:15;5.55;;;1.02;;
22579;SDS011;11456;47.030;15.396;2024-01-25T00:44:43;3.83;;;1.02;;
22579;SDS011;11456;47.030;15.396;2024-01-25T00:47:10;4.25;;;1.17;;
22579;SDS011;11456;47.030;15.396;2024-01-25T00:49:37;3.70;;;1.10;;
22579;SDS011;11456;47.030;15.396;2024-01-25T00:52:04;6.70;;;1.30;;
22579;SDS011;11456;47.030;15.396;2024-01-25T00:54:31;3.40;;;0.95;;
22579;SDS011;11456;47.030;15.396;2024-01-25T00:56:58;5.47;;;1.25;;
22579;SDS011;11456;47.030;15.396;2024-01-25T00:59:25;4.15;;;1.20;;
22579;SDS011;11456;47.030;15.396;2024-01-25T01:01:52;5.25;;;1.45;;
22579;SDS011;11456;47.030;15.396;2024-01-25T01:04:21;4.55;;;1.40;;
22579;SDS011;11456;47.030;15.396;2024-01-25T01:06:49;2.78;;;1.20;;
22579;SDS011;11456;47.030;15.396;2024-01-25T01:09:16;4.10;;;1.15;;
22579;SDS011;11456;47.030;15.396;2024-01-25T01:11:44;4.65;;;1.13;;
22579;SDS011;11456;47.030;15.396;2024-01-25T01:14:10;3.78;;;1.27;;
22579;SDS011;11456;47.030;15.396;2024-01-25T01:16:37;3.38;;;1.42;;
22579;SDS011;11456;47.030;15.396;2024-01-25T01:19:04;3.85;;;1.15;;
22579;SDS011;11456;47.030;15.396;2024-01-25T01:21:34;5.03;;;1.00;;
22579;SDS011;11456;47.030;15.396;2024-01-25T01:24:02;2.58;;;1.15;;
22579;SDS011;11456;47.030;15.396;2024-01-25T01:26:29;6.18;;;1.27;;
22579;SDS011;11456;47.030;15.396;2024-01-25T01:28:56;4.47;;;1.25;;
22579;SDS011;11456;47.030;15.396;2024-01-25T01:31:23;3.92;;;1.00;;
22579;SDS011;11456;47.030;15.396;2024-01-25T01:33:50;3.03;;;1.27;;
22579;SDS011;11456;47.030;15.396;2024-01-25T01:36:18;3.05;;;1.40;;
22579;SDS011;11456;47.030;15.396;2024-01-25T01:38:44;3.70;;;1.30;;
22579;SDS011;11456;47.030;15.396;2024-01-25T01:41:11;3.08;;;1.23;;
22579;SDS011;11456;47.030;15.396;2024-01-25T01:43:39;4.80;;;1.88;;
22579;SDS011;11456;47.030;15.396;2024-01-25T01:46:10;7.47;;;1.50;;
22579;SDS011;11456;47.030;15.396;2024-01-25T01:48:39;3.00;;;1.30;;
22579;SDS011;11456;47.030;15.396;2024-01-25T01:51:06;2.38;;;1.10;;
22579;SDS011;11456;47.030;15.396;2024-01-25T01:53:35;2.33;;;1.25;;
22579;SDS011;11456;47.030;15.396;2024-01-25T01:56:02;4.10;;;1.20;;
22579;SDS011;11456;47.030;15.396;2024-01-25T01:58:30;5.03;;;1.23;;
22579;SDS011;11456;47.030;15.396;2024-01-25T02:00:57;3.78;;;0.90;;
22579;SDS011;11456;47.030;15.396;2024-01-25T02:03:26;4.57;;;1.20;;
22579;SDS011;11456;47.030;15.396;2024-01-25T02:05:53;2.75;;;1.20;;
22579;SDS011;11456;47.030;15.396;2024-01-25T02:08:21;6.90;;;1.60;;
22579;SDS011;11456;47.030;15.396;2024-01-25T02:10:47;5.40;;;2.05;;
22579;SDS011;11456;47.030;15.396;2024-01-25T02:13:15;8.75;;;2.22;;
22579;SDS011;11456;47.030;15.396;2024-01-25T02:15:42;6.20;;;1.98;;
22579;SDS011;11456;47.030;15.396;2024-01-25T02:18:09;8.82;;;2.63;;
22579;SDS011;11456;47.030;15.396;2024-01-25T02:20:36;6.40;;;1.95;;
22579;SDS011;11456;47.030;15.396;2024-01-25T02:23:03;5.43;;;2.00;;
22579;SDS011;11456;47.030;15.396;2024-01-25T02:25:30;5.90;;;1.90;;
22579;SDS011;11456;47.030;15.396;2024-01-25T02:27:57;7.35;;;2.60;;
22579;SDS011;11456;47.030;15.396;2024-01-25T02:30:24;5.82;;;2.30;;
22579;SDS011;11456;47.030;15.396;2024-01-25T02:32:50;5.57;;;2.17;;
22579;SDS011;11456;47.030;15.396;2024-01-25T02:35:17;12.48;;;4.43;;
22579;SDS011;11456;47.030;15.396;2024-01-25T02:37:44;15.95;;;7.00;;
22579;SDS011;11456;47.030;15.396;2024-01-25T02:40:11;8.68;;;3.35;;
22579;SDS011;11456;47.030;15.396;2024-01-25T02:42:39;2.90;;;1.60;;
22579;SDS011;11456;47.030;15.396;2024-01-25T02:45:05;3.08;;;1.60;;
22579;SDS011;11456;47.030;15.396;2024-01-25T02:47:32;5.07;;;2.08;;
22579;SDS011;11456;47.030;15.396;2024-01-25T02:49:59;4.13;;;1.58;;
22579;SDS011;11456;47.030;15.396;2024-01-25T02:52:26;7.57;;;1.67;;
22579;SDS011;11456;47.030;15.396;2024-01-25T02:54:53;5.80;;;1.60;;
22579;SDS011;11456;47.030;15.396;2024-01-25T02:57:20;7.80;;;1.77;;
22579;SDS011;11456;47.030;15.396;2024-01-25T02:59:47;7.47;;;1.65;;
22579;SDS011;11456;47.030;15.396;2024-01-25T03:02:13;6.93;;;1.90;;
22579;SDS011;11456;47.030;15.396;2024-01-25T03:04:40;3.67;;;1.40;;
22579;SDS011;11456;47.030;15.396;2024-01-25T03:07:07;4.95;;;1.90;;
22579;SDS011;11456;47.030;15.396;2024-01-25T03:09:34;8.20;;;1.88;;
22579;SDS011;11456;47.030;15.396;2024-01-25T03:12:01;5.72;;;1.80;;
22579;SDS011;11456;47.030;15.396;2024-01-25T03:14:27;2.33;;;1.40;;
22579;SDS011;11456;47.030;15.396;2024-01-25T03:16:54;3.22;;;1.25;;
22579;SDS011;11456;47.030;15.396;2024-01-25T03:19:23;2.92;;;1.17;;
22579;SDS011;11456;47.030;15.396;2024-01-25T03:21:51;5.50;;;1.33;;
22579;SDS011;11456;47.030;15.396;2024-01-25T03:24:18;3.50;;;1.40;;
22579;SDS011;11456;47.030;15.396;2024-01-25T03:26:45;3.80;;;1.30;;
22579;SDS011;11456;47.030;15.396;2024-01-25T03:29:12;5.57;;;1.25;;
22579;SDS011;11456;47.030;15.396;2024-01-25T03:31:38;2.85;;;1.00;;
22579;SDS011;11456;47.030;15.396;2024-01-25T03:34:05;4.38;;;1.00;;
22579;SDS011;11456;47.030;15.396;2024-01-25T03:36:32;4.30;;;1.10;;
22579;SDS011;11456;47.030;15.396;2024-01-25T03:38:59;5.75;;;0.82;;
22579;SDS011;11456;47.030;15.396;2024-01-25T03:41:26;2.45;;;0.90;;
22579;SDS011;11456;47.030;15.396;2024-01-25T03:43:55;1.95;;;0.95;;
22579;SDS011;11456;47.030;15.396;2024-01-25T03:46:22;3.28;;;0.77;;
22579;SDS011;11456;47.030;15.396;2024-01-25T03:48:49;2.15;;;0.80;;
22579;SDS011;11456;47.030;15.396;2024-01-25T03:51:16;2.58;;;0.90;;
22579;SDS011;11456;47.030;15.396;2024-01-25T03:53:43;2.67;;;1.00;;
22579;SDS011;11456;47.030;15.396;2024-01-25T03:56:10;2.40;;;0.80;;
22579;SDS011;11456;47.030;15.396;2024-01-25T03:58:38;3.97;;;0.90;;
22579;SDS011;11456;47.030;15.396;2024-01-25T04:01:05;2.47;;;1.10;;
22579;SDS011;11456;47.030;15.396;2024-01-25T04:03:32;1.75;;;0.90;;
22579;SDS011;11456;47.030;15.396;2024-01-25T04:05:59;2.63;;;0.77;;
22579;SDS011;11456;47.030;15.396;2024-01-25T04:08:26;4.55;;;1.05;;
22579;SDS011;11456;47.030;15.396;2024-01-25T04:10:52;2.83;;;1.00;;
22579;SDS011;11456;47.030;15.396;2024-01-25T04:13:19;1.67;;;0.75;;
22579;SDS011;11456;47.030;15.396;2024-01-25T04:15:46;2.22;;;0.90;;
22579;SDS011;11456;47.030;15.396;2024-01-25T04:18:12;3.05;;;0.90;;
22579;SDS011;11456;47.030;15.396;2024-01-25T04:20:40;2.22;;;0.90;;
22579;SDS011;11456;47.030;15.396;2024-01-25T04:23:08;2.30;;;0.88;;
22579;SDS011;11456;47.030;15.396;2024-01-25T04:25:34;1.52;;;0.77;;
22579;SDS011;11456;47.030;15.396;2024-01-25T04:28:01;2.20;;;0.75;;
22579;SDS011;11456;47.030;15.396;2024-01-25T04:30:28;4.68;;;1.38;;
22579;SDS011;11456;47.030;15.396;2024-01-25T04:32:57;2.38;;;0.82;;
22579;SDS011;11456;47.030;15.396;2024-01-25T04:35:24;2.88;;;0.90;;
22579;SDS011;11456;47.030;15.396;2024-01-25T04:37:51;2.60;;;0.85;;
22579;SDS011;11456;47.030;15.396;2024-01-25T04:40:17;3.17;;;0.80;;
22579;SDS011;11456;47.030;15.396;2024-01-25T04:42:45;3.35;;;1.60;;
22579;SDS011;11456;47.030;15.396;2024-01-25T04:45:12;4.88;;;1.50;;
22579;SDS011;11456;47.030;15.396;2024-01-25T04:47:39;3.53;;;1.10;;
22579;SDS011;11456;47.030;15.396;2024-01-25T04:50:06;4.15;;;1.02;;
22579;SDS011;11456;47.030;15.396;2024-01-25T04:52:33;3.70;;;1.00;;
22579;SDS011;11456;47.030;15.396;2024-01-25T04:55:00;7.80;;;1.73;;
22579;SDS011;11456;47.030;15.396;2024-01-25T04:57:27;2.20;;;0.85;;
22579;SDS011;11456;47.030;15.396;2024-01-25T04:59:53;10.88;;;5.05;;
22579;SDS011;11456;47.030;15.396;2024-01-25T05:02:20;8.82;;;3.58;;
22579;SDS011;11456;47.030;15.396;2024-01-25T05:04:47;9.65;;;4.15;;
22579;SDS011;11456;47.030;15.396;2024-01-25T05:07:14;8.40;;;3.78;;
22579;SDS011;11456;47.030;15.396;2024-01-25T05:09:41;4.05;;;1.77;;
22579;SDS011;11456;47.030;15.396;2024-01-25T05:12:08;5.07;;;1.13;;
22579;SDS011;11456;47.030;15.396;2024-01-25T05:14:34;3.60;;;1.50;;
22579;SDS011;11456;47.030;15.396;2024-01-25T05:17:03;4.55;;;1.40;;
22579;SDS011;11456;47.030;15.396;2024-01-25T05:19:30;3.50;;;0.95;;
22579;SDS011;11456;47.030;15.396;2024-01-25T05:21:57;4.22;;;1.10;;
22579;SDS011;11456;47.030;15.396;2024-01-25T05:24:24;4.18;;;1.13;;
22579;SDS011;11456;47.030;15.396;2024-01-25T05:26:50;3.17;;;1.05;;
22579;SDS011;11456;47.030;15.396;2024-01-25T05:29:17;3.35;;;1.13;;
22579;SDS011;11456;47.030;15.396;2024-01-25T05:31:44;5.30;;;1.13;;
22579;SDS011;11456;47.030;15.396;2024-01-25T05:34:11;5.10;;;1.45;;
22579;SDS011;11456;47.030;15.396;2024-01-25T05:36:38;5.78;;;1.20;;
22579;SDS011;11456;47.030;15.396;2024-01-25T05:39:05;2.80;;;1.10;;
22579;SDS011;11456;47.030;15.396;2024-01-25T05:41:33;3.63;;;1.10;;
22579;SDS011;11456;47.030;15.396;2024-01-25T05:44:00;6.80;;;1.40;;
22579;SDS011;11456;47.030;15.396;2024-01-25T05:46:26;6.45;;;1.55;;
22579;SDS011;11456;47.030;15.396;2024-01-25T05:48:53;4.35;;;1.23;;
22579;SDS011;11456;47.030;15.396;2024-01-25T05:51:20;5.10;;;1.40;;
22579;SDS011;11456;47.030;15.396;2024-01-25T05:53:47;4.97;;;1.33;;
22579;SDS011;11456;47.030;15.396;2024-01-25T05:56:14;5.80;;;1.65;;
22579;SDS011;11456;47.030;15.396;2024-01-25T05:58:40;5.07;;;1.80;;
22579;SDS011;11456;47.030;15.396;2024-01-25T06:01:07;11.57;;;4.45;;
22579;SDS011;11456;47.030;15.396;2024-01-25T06:03:34;10.65;;;4.32;;
22579;SDS011;11456;47.030;15.396;2024-01-25T06:06:01;16.88;;;7.30;;
22579;SDS011;11456;47.030;15.396;2024-01-25T06:08:29;10.02;;;4.70;;
22579;SDS011;11456;47.030;15.396;2024-01-25T06:10:56;14.82;;;5.25;;
22579;SDS011;11456;47.030;15.396;2024-01-25T06:13:22;12.02;;;4.80;;
22579;SDS011;11456;47.030;15.396;2024-01-25T06:15:49;17.38;;;5.68;;
22579;SDS011;11456;47.030;15.396;2024-01-25T06:18:16;16.05;;;5.75;;
22579;SDS011;11456;47.030;15.396;2024-01-25T06:20:43;19.63;;;8.63;;
22579;SDS011;11456;47.030;15.396;2024-01-25T06:23:10;9.68;;;3.80;;
22579;SDS011;11456;47.030;15.396;2024-01-25T06:25:37;7.35;;;3.00;;
22579;SDS011;11456;47.030;15.396;2024-01-25T06:28:04;5.82;;;3.05;;
22579;SDS011;11456;47.030;15.396;2024-01-25T06:30:30;6.50;;;2.67;;
22579;SDS011;11456;47.030;15.396;2024-01-25T06:32:57;3.53;;;1.60;;
22579;SDS011;11456;47.030;15.396;2024-01-25T06:35:24;6.53;;;2.30;;
22579;SDS011;11456;47.030;15.396;2024-01-25T06:37:51;6.20;;;2.40;;
22579;SDS011;11456;47.030;15.396;2024-01-25T06:40:18;7.05;;;2.40;;
22579;SDS011;11456;47.030;15.396;2024-01-25T06:42:45;5.50;;;2.22;;
22579;SDS011;11456;47.030;15.396;2024-01-25T06:45:12;6.32;;;2.15;;
22579;SDS011;11456;47.030;15.396;2024-01-25T06:47:38;4.03;;;1.80;;
22579;SDS011;11456;47.030;15.396;2024-01-25T06:50:05;9.07;;;2.75;;
22579;SDS011;11456;47.030;15.396;2024-01-25T06:52:33;4.30;;;1.90;;
22579;SDS011;11456;47.030;15.396;2024-01-25T06:55:00;3.35;;;2.25;;
22579;SDS011;11456;47.030;15.396;2024-01-25T06:57:27;5.55;;;2.17;;
22579;SDS011;11456;47.030;15.396;2024-01-25T06:59:53;7.60;;;2.35;;
22579;SDS011;11456;47.030;15.396;2024-01-25T07:02:20;5.28;;;2.90;;
22579;SDS011;11456;47.030;15.396;2024-01-25T07:04:48;1.13;;;0.70;;
22579;SDS011;11456;47.030;15.396;2024-01-25T07:07:15;4.65;;;2.55;;
22579;SDS011;11456;47.030;15.396;2024-01-25T07:09:42;6.28;;;2.17;;
22579;SDS011;11456;47.030;15.396;2024-01-25T07:12:08;5.55;;;2.80;;
22579;SDS011;11456;47.030;15.396;2024-01-25T07:14:35;9.27;;;3.70;;
22579;SDS011;11456;47.030;15.396;2024-01-25T07:17:02;2.75;;;1.42;;
22579;SDS011;11456;47.030;15.396;2024-01-25T07:19:30;9.55;;;1.60;;
22579;SDS011;11456;47.030;15.396;2024-01-25T07:21:56;1.83;;;1.20;;
22579;SDS011;11456;47.030;15.396;2024-01-25T07:24:24;1.00;;;0.70;;
22579;SDS011;11456;47.030;15.396;2024-01-25T07:26:52;0.85;;;0.60;;
22579;SDS011;11456;47.030;15.396;2024-01-25T07:29:22;1.42;;;0.90;;
22579;SDS011;11456;47.030;15.396;2024-01-25T07:31:48;3.50;;;1.20;;
22579;SDS011;11456;47.030;15.396;2024-01-25T07:34:15;1.00;;;0.70;;
22579;SDS011;11456;47.030;15.396;2024-01-25T07:36:42;1.30;;;0.80;;
22579;SDS011;11456;47.030;15.396;2024-01-25T07:39:09;1.38;;;0.60;;
22579;SDS011;11456;47.030;15.396;2024-01-25T07:41:38;0.40;;;0.40;;
22579;SDS011;11456;47.030;15.396;2024-01-25T07:44:04;1.25;;;0.50;;
22579;SDS011;11456;47.030;15.396;2024-01-25T07:46:32;1.35;;;0.50;;
22579;SDS011;11456;47.030;15.396;2024-01-25T07:48:59;2.75;;;0.80;;
22579;SDS011;11456;47.030;15.396;2024-01-25T07:51:26;1.77;;;0.80;;
22579;SDS011;11456;47.030;15.396;2024-01-25T07:53:55;1.30;;;0.57;;
22579;SDS011;11456;47.030;15.396;2024-01-25T07:56:22;0.52;;;0.50;;
22579;SDS011;11456;47.030;15.396;2024-01-25T07:58:49;0.60;;;0.40;;
22579;SDS011;11456;47.030;15.396;2024-01-25T08:01:18;1.05;;;0.45;;
22579;SDS011;11456;47.030;15.396;2024-01-25T08:03:46;0.80;;;0.40;;
22579;SDS011;11456;47.030;15.396;2024-01-25T08:06:13;0.73;;;0.40;;
22579;SDS011;11456;47.030;15.396;2024-01-25T08:08:40;1.55;;;0.65;;
22579;SDS011;11456;47.030;15.396;2024-01-25T08:11:07;1.63;;;0.60;;
22579;SDS011;11456;47.030;15.396;2024-01-25T08:13:34;0.95;;;0.60;;
22579;SDS011;11456;47.030;15.396;2024-01-25T08:16:01;1.90;;;0.30;;
22579;SDS011;11456;47.030;15.396;2024-01-25T08:18:28;0.50;;;0.38;;
22579;SDS011;11456;47.030;15.396;2024-01-25T08:20:56;1.00;;;0.35;;
22579;SDS011;11456;47.030;15.396;2024-01-25T08:23:23;0.50;;;0.40;;
22579;SDS011;11456;47.030;15.396;2024-01-25T08:25:50;0.30;;;0.30;;
22579;SDS011;11456;47.030;15.396;2024-01-25T08:28:17;0.25;;;0.25;;
22579;SDS011;11456;47.030;15.396;2024-01-25T08:30:44;0.20;;;0.20;;
22579;SDS011;11456;47.030;15.396;2024-01-25T08:33:11;0.95;;;0.60;;
22579;SDS011;11456;47.030;15.396;2024-01-25T08:35:37;0.20;;;0.20;;
22579;SDS011;11456;47.030;15.396;2024-01-25T08:38:06;0.77;;;0.38;;
22579;SDS011;11456;47.030;15.396;2024-01-25T08:40:33;1.83;;;0.30;;
22579;SDS011;11456;47.030;15.396;2024-01-25T08:43:00;0.20;;;0.20;;
22579;SDS011;11456;47.030;15.396;2024-01-25T08:45:27;1.20;;;0.30;;
22579;SDS011;11456;47.030;15.396;2024-01-25T08:47:54;0.32;;;0.30;;
22579;SDS011;11456;47.030;15.396;2024-01-25T08:50:22;0.30;;;0.30;;
22579;SDS011;11456;47.030;15.396;2024-01-25T08:52:52;0.20;;;0.20;;
22579;SDS011;11456;47.030;15.396;2024-01-25T08:55:19;0.30;;;0.30;;
22579;SDS011;11456;47.030;15.396;2024-01-25T08:57:46;1.08;;;0.25;;
22579;SDS011;11456;47.030;15.396;2024-01-25T09:00:13;0.20;;;0.20;;
22579;SDS011;11456;47.030;15.396;2024-01-25T09:02:40;0.30;;;0.30;;
22579;SDS011;11456;47.030;15.396;2024-01-25T09:05:07;0.22;;;0.20;;
22579;SDS011;11456;47.030;15.396;2024-01-25T09:07:35;0.20;;;0.20;;
22579;SDS011;11456;47.030;15.396;2024-01-25T09:10:02;0.30;;;0.30;;
22579;SDS011;11456;47.030;15.396;2024-01-25T09:12:31;0.17;;;0.17;;
22579;SDS011;11456;47.030;15.396;2024-01-25T09:14:58;0.30;;;0.20;;
22579;SDS011;11456;47.030;15.396;2024-01-25T09:17:24;1.00;;;0.30;;
22579;SDS011;11456;47.030;15.396;2024-01-25T09:19:51;0.20;;;0.20;;
22579;SDS011;11456;47.030;15.396;2024-01-25T09:22:18;1.02;;;0.38;;
22579;SDS011;11456;47.030;15.396;2024-01-25T09:24:46;0.60;;;0.30;;
22579;SDS011;11456;47.030;15.396;2024-01-25T09:27:13;2.33;;;0.30;;
22579;SDS011;11456;47.030;15.396;2024-01-25T09:29:40;0.43;;;0.30;;
22579;SDS011;11456;47.030;15.396;2024-01-25T09:32:08;1.13;;;0.40;;
22579;SDS011;11456;47.030;15.396;2024-01-25T09:34:36;0.70;;;0.45;;
22579;SDS011;11456;47.030;15.396;2024-01-25T09:37:06;0.40;;;0.40;;
22579;SDS011;11456;47.030;15.396;2024-01-25T09:39:34;2.35;;;0.50;;
22579;SDS011;11456;47.030;15.396;2024-01-25T09:42:02;4.97;;;0.50;;
22579;SDS011;11456;47.030;15.396;2024-01-25T09:44:30;1.65;;;0.60;;
22579;SDS011;11456;47.030;15.396;2024-01-25T09:46:58;3.78;;;0.70;;
22579;SDS011;11456;47.030;15.396;2024-01-25T09:49:25;5.00;;;1.10;;
22579;SDS011;11456;47.030;15.396;2024-01-25T09:51:52;1.40;;;0.98;;
22579;SDS011;11456;47.030;15.396;2024-01-25T09:54:20;3.90;;;1.05;;
22579;SDS011;11456;47.030;15.396;2024-01-25T09:56:47;3.05;;;2.10;;
22579;SDS011;11456;47.030;15.396;2024-01-25T09:59:17;6.40;;;2.60;;
22579;SDS011;11456;47.030;15.396;2024-01-25T10:01:44;4.90;;;1.13;;
22579;SDS011;11456;47.030;15.396;2024-01-25T10:04:11;5.53;;;0.95;;
22579;SDS011;11456;47.030;15.396;2024-01-25T10:06:38;3.15;;;1.05;;
22579;SDS011;11456;47.030;15.396;2024-01-25T10:09:05;12.60;;;1.38;;
22579;SDS011;11456;47.030;15.396;2024-01-25T10:11:35;3.60;;;1.00;;
22579;SDS011;11456;47.030;15.396;2024-01-25T10:14:10;3.25;;;0.82;;
22579;SDS011;11456;47.030;15.396;2024-01-25T10:16:37;6.55;;;0.70;;
22579;SDS011;11456;47.030;15.396;2024-01-25T10:19:06;5.68;;;1.00;;
22579;SDS011;11456;47.030;15.396;2024-01-25T10:21:35;9.13;;;1.35;;
22579;SDS011;11456;47.030;15.396;2024-01-25T10:24:05;7.80;;;1.40;;
22579;SDS011;11456;47.030;15.396;2024-01-25T10:26:33;3.15;;;0.90;;
22579;SDS011;11456;47.030;15.396;2024-01-25T10:29:00;6.22;;;1.10;;
22579;SDS011;11456;47.030;15.396;2024-01-25T10:31:30;18.75;;;1.77;;
22579;SDS011;11456;47.030;15.396;2024-01-25T10:33:59;5.75;;;1.15;;
22579;SDS011;11456;47.030;15.396;2024-01-25T10:36:26;6.43;;;1.35;;
22579;SDS011;11456;47.030;15.396;2024-01-25T10:38:54;5.75;;;1.40;;
22579;SDS011;11456;47.030;15.396;2024-01-25T10:41:21;4.32;;;1.25;;
22579;SDS011;11456;47.030;15.396;2024-01-25T10:43:52;9.30;;;1.50;;
22579;SDS011;11456;47.030;15.396;2024-01-25T10:46:19;3.40;;;1.25;;
22579;SDS011;11456;47.030;15.396;2024-01-25T10:48:46;3.75;;;1.30;;
22579;SDS011;11456;47.030;15.396;2024-01-25T10:51:14;6.18;;;1.80;;
22579;SDS011;11456;47.030;15.396;2024-01-25T10:53:45;13.27;;;2.00;;
22579;SDS011;11456;47.030;15.396;2024-01-25T10:56:12;11.07;;;1.50;;
22579;SDS011;11456;47.030;15.396;2024-01-25T10:58:40;8.32;;;1.35;;
22579;SDS011;11456;47.030;15.396;2024-01-25T11:01:09;6.25;;;1.70;;
22579;SDS011;11456;47.030;15.396;2024-01-25T11:03:42;4.35;;;1.33;;
22579;SDS011;11456;47.030;15.396;2024-01-25T11:06:10;8.02;;;1.70;;
22579;SDS011;11456;47.030;15.396;2024-01-25T11:08:39;8.30;;;1.30;;
22579;SDS011;11456;47.030;15.396;2024-01-25T11:11:06;3.65;;;1.40;;
22579;SDS011;11456;47.030;15.396;2024-01-25T11:13:44;4.40;;;1.33;;
22579;SDS011;11456;47.030;15.396;2024-01-25T11:16:12;4.40;;;1.52;;
22579;SDS011;11456;47.030;15.396;2024-01-25T11:18:54;7.32;;;1.40;;
22579;SDS011;11456;47.030;15.396;2024-01-25T11:21:28;6.88;;;1.73;;
22579;SDS011;11456;47.030;15.396;2024-01-25T11:26:34;7.53;;;1.38;;
22579;SDS011;11456;47.030;15.396;2024-01-25T11:29:01;5.57;;;1.10;;
22579;SDS011;11456;47.030;15.396;2024-01-25T11:31:28;5.38;;;1.40;;
22579;SDS011;11456;47.030;15.396;2024-01-25T11:33:59;4.25;;;1.25;;
22579;SDS011;11456;47.030;15.396;2024-01-25T11:36:27;5.73;;;1.40;;
22579;SDS011;11456;47.030;15.396;2024-01-25T11:38:54;6.50;;;1.70;;
22579;SDS011;11456;47.030;15.396;2024-01-25T11:41:21;7.32;;;1.30;;
22579;SDS011;11456;47.030;15.396;2024-01-25T11:43:48;5.70;;;1.40;;
22579;SDS011;11456;47.030;15.396;2024-01-25T11:46:16;6.07;;;1.65;;
22579;SDS011;11456;47.030;15.396;2024-01-25T11:48:44;3.30;;;1.20;;
22579;SDS011;11456;47.030;15.396;2024-01-25T11:51:11;5.60;;;1.42;;
22579;SDS011;11456;47.030;15.396;2024-01-25T11:53:38;3.42;;;1.33;;
22579;SDS011;11456;47.030;15.396;2024-01-25T11:56:09;7.82;;;1.77;;
22579;SDS011;11456;47.030;15.396;2024-01-25T11:58:39;5.47;;;1.30;;
22579;SDS011;11456;47.030;15.396;2024-01-25T12:01:08;7.85;;;1.50;;
22579;SDS011;11456;47.030;15.396;2024-01-25T12:03:36;10.52;;;1.40;;
22579;SDS011;11456;47.030;15.396;2024-01-25T12:06:04;5.90;;;1.33;;
22579;SDS011;11456;47.030;15.396;2024-01-25T12:08:32;7.07;;;1.35;;
22579;SDS011;11456;47.030;15.396;2024-01-25T12:11:02;5.43;;;1.23;;
22579;SDS011;11456;47.030;15.396;2024-01-25T12:13:38;6.00;;;1.27;;
22579;SDS011;11456;47.030;15.396;2024-01-25T12:16:06;12.65;;;1.67;;
22579;SDS011;11456;47.030;15.396;2024-01-25T12:18:34;9.52;;;1.88;;
22579;SDS011;11456;47.030;15.396;2024-01-25T12:21:05;7.82;;;1.70;;
22579;SDS011;11456;47.030;15.396;2024-01-25T12:23:32;7.00;;;1.63;;
22579;SDS011;11456;47.030;15.396;2024-01-25T12:26:00;5.82;;;1.67;;
22579;SDS011;11456;47.030;15.396;2024-01-25T12:28:32;5.00;;;1.40;;
22579;SDS011;11456;47.030;15.396;2024-01-25T12:31:00;8.00;;;1.70;;
22579;SDS011;11456;47.030;15.396;2024-01-25T12:33:27;7.97;;;1.70;;
22579;SDS011;11456;47.030;15.396;2024-01-25T12:35:55;3.80;;;1.52;;
22579;SDS011;11456;47.030;15.396;2024-01-25T12:38:22;11.18;;;1.80;;
22579;SDS011;11456;47.030;15.396;2024-01-25T12:40:51;8.40;;;1.90;;
22579;SDS011;11456;47.030;15.396;2024-01-25T12:43:20;3.70;;;1.60;;
22579;SDS011;11456;47.030;15.396;2024-01-25T12:45:51;5.38;;;1.77;;
22579;SDS011;11456;47.030;15.396;2024-01-25T12:48:24;9.70;;;1.60;;
22579;SDS011;11456;47.030;15.396;2024-01-25T12:50:51;11.27;;;1.83;;
22579;SDS011;11456;47.030;15.396;2024-01-25T12:53:18;6.18;;;1.70;;
22579;SDS011;11456;47.030;15.396;2024-01-25T12:55:46;6.72;;;1.80;;
22579;SDS011;11456;47.030;15.396;2024-01-25T12:58:12;7.40;;;1.73;;
22579;SDS011;11456;47.030;15.396;2024-01-25T13:00:39;7.82;;;1.60;;
22579;SDS011;11456;47.030;15.396;2024-01-25T13:03:07;7.03;;;1.60;;
22579;SDS011;11456;47.030;15.396;2024-01-25T13:05:33;9.05;;;1.80;;
22579;SDS011;11456;47.030;15.396;2024-01-25T13:08:01;5.07;;;1.80;;
22579;SDS011;11456;47.030;15.396;2024-01-25T13:10:29;8.82;;;1.75;;
22579;SDS011;11456;47.030;15.396;2024-01-25T13:12:56;6.35;;;1.60;;
22579;SDS011;11456;47.030;15.396;2024-01-25T13:15:24;6.03;;;1.58;;
22579;SDS011;11456;47.030;15.396;2024-01-25T13:17:51;6.15;;;1.60;;
22579;SDS011;11456;47.030;15.396;2024-01-25T13:20:18;4.70;;;1.50;;
22579;SDS011;11456;47.030;15.396;2024-01-25T13:22:45;5.97;;;1.70;;
22579;SDS011;11456;47.030;15.396;2024-01-25T13:25:11;8.75;;;1.98;;
22579;SDS011;11456;47.030;15.396;2024-01-25T13:27:38;5.65;;;1.50;;
22579;SDS011;11456;47.030;15.396;2024-01-25T13:30:05;4.30;;;1.25;;
22579;SDS011;11456;47.030;15.396;2024-01-25T13:32:32;7.47;;;1.83;;
22579;SDS011;11456;47.030;15.396;2024-01-25T13:34:59;6.57;;;1.80;;
22579;SDS011;11456;47.030;15.396;2024-01-25T13:37:26;11.15;;;1.60;;
22579;SDS011;11456;47.030;15.396;2024-01-25T13:39:53;4.82;;;1.67;;
22579;SDS011;11456;47.030;15.396;2024-01-25T13:42:19;7.05;;;1.67;;
22579;SDS011;11456;47.030;15.396;2024-01-25T13:44:46;16.75;;;2.10;;
22579;SDS011;11456;47.030;15.396;2024-01-25T13:47:13;7.28;;;1.67;;
22579;SDS011;11456;47.030;15.396;2024-01-25T13:49:39;5.55;;;1.40;;
22579;SDS011;11456;47.030;15.396;2024-01-25T13:52:06;5.55;;;1.50;;
22579;SDS011;11456;47.030;15.396;2024-01-25T13:54:33;5.45;;;1.63;;
22579;SDS011;11456;47.030;15.396;2024-01-25T13:57:00;5.70;;;2.00;;
22579;SDS011;11456;47.030;15.396;2024-01-25T13:59:27;6.72;;;1.48;;
22579;SDS011;11456;47.030;15.396;2024-01-25T14:01:53;8.95;;;2.22;;
22579;SDS011;11456;47.030;15.396;2024-01-25T14:04:20;7.47;;;1.50;;
22579;SDS011;11456;47.030;15.396;2024-01-25T14:06:47;17.75;;;1.80;;
22579;SDS011;11456;47.030;15.396;2024-01-25T14:09:15;5.32;;;1.48;;
22579;SDS011;11456;47.030;15.396;2024-01-25T14:11:42;8.57;;;2.50;;
22579;SDS011;11456;47.030;15.396;2024-01-25T14:14:09;35.60;;;3.42;;
22579;SDS011;11456;47.030;15.396;2024-01-25T14:16:36;13.55;;;2.38;;
22579;SDS011;11456;47.030;15.396;2024-01-25T14:19:03;12.70;;;1.75;;
22579;SDS011;11456;47.030;15.396;2024-01-25T14:21:33;4.97;;;1.33;;
22579;SDS011;11456;47.030;15.396;2024-01-25T14:23:59;6.63;;;1.95;;
22579;SDS011;11456;47.030;15.396;2024-01-25T14:26:26;7.82;;;2.50;;
22579;SDS011;11456;47.030;15.396;2024-01-25T14:28:53;4.90;;;1.60;;
22579;SDS011;11456;47.030;15.396;2024-01-25T14:31:20;12.02;;;1.90;;
22579;SDS011;11456;47.030;15.396;2024-01-25T14:33:46;3.97;;;1.40;;
22579;SDS011;11456;47.030;15.396;2024-01-25T14:36:13;4.68;;;1.67;;